Yorktown Express — WDD6127 — position and weather

sailwx.info

Track history (hours):
 
Tides and Currents Weather Stations Pressure Air Temp Water Temp Dewpoint Dewpoint Depression Visibility Wind Speed Wind Dir Waves Ship Positions

Yorktown Express

More information available from US FCC via Universal Licensing System and Coast Guard Vessel Documentation Center.

Last reported at 2014-Sep-22 00:00 UTC. Time now 2014-Sep-22 18:13 UTC.
Position N 41°54' W 029°24'.

Type: Ship. MMSI: 367168650.

Wind from 230 at 10 knots

Waves 2.0 meters (7 feet), 4 second period

Barometer 1031.0 mb
Air temperature 16.0 ° C
Visibility: greater than 10.8 NM
Dewpoint 12.4 ° C
Water temperature 19.0 ° C

Date/timePositionNaut miles runAvg speedWind from/ knotsBaromVisibWave heightAir tempDewpointWater temp
2014-Sep-22 00:00N 41°54' W 029°24'36430.4 230 / 101031.010.8 2.016.012.419.0
2014-Sep-21 12:00N 47°06' W 033°48'18415.3 320 / 151029.510.8 2.015.0 9.219.0
2014-Sep-21 00:00N 45°54' W 037°54'36015.0 320 / 311014.0 3.015.0 9.221.0
2014-Sep-20 00:00N 43°36' W 045°42'11819.7 320 / 251010.010.8 2.020.016.725.0
2014-Sep-19 18:00N 42°42' W 048°06'31417.5 220 / 181008.810.8 1.523.019.921.0
2014-Sep-19 00:00N 40°54' W 054°42'10918.2 120 / 241012.510.8 2.021.014.225.0
2014-Sep-18 18:00N 40°24' W 057°00'32017.8 120 / 121014.510.8 0.522.013.425.0
2014-Sep-18 00:00N 38°48' W 063°36'10617.7 100 / 131014.510.8 0.525.013.129.0
2014-Sep-17 18:00N 38°24' W 065°48'9716.2 090 / 131015.210.8 1.025.015.129.0
2014-Sep-17 12:00N 38°00' W 067°48'12120.2 090 / 231013.010.8 1.026.016.431.0
2014-Sep-17 06:00N 37°36' W 070°18'26118.8 060 / 41014.010.8 0.524.015.831.0
2014-Sep-16 16:07N 36°52' W 075°41'1016.8
2014-Sep-16 15:32N 36°53' W 075°53'1313.0
2014-Sep-16 14:33N 36°59' W 076°07'10 6.9
2014-Sep-16 13:04N 36°55' W 076°20'0 0.0
2014-Sep-16 12:26N 36°55' W 076°20'0 0.0
2014-Sep-16 11:26N 36°55' W 076°20'0 0.0
2014-Sep-16 00:26N 36°55' W 076°20'0 0.0
2014-Sep-15 23:32N 36°55' W 076°20'1 0.5
2014-Sep-15 21:16N 36°57' W 076°20'7 9.3
2014-Sep-15 20:31N 37°00' W 076°13'1413.9
2014-Sep-15 19:30N 36°56' W 075°56'14914.5
2014-Sep-15 09:12N 34°27' W 075°45'29315.6
2014-Sep-14 14:26N 32°02' W 080°49'8 9.6
2014-Sep-14 13:33N 32°05' W 080°59'7 7.2
2014-Sep-14 12:33N 32°06' W 081°07'1 1.1
2014-Sep-14 11:18N 32°07' W 081°08'0 0.0
2014-Sep-14 10:27N 32°07' W 081°08'0 0.0
2014-Sep-14 09:33N 32°07' W 081°08'0 0.0
2014-Sep-14 08:33N 32°07' W 081°08'0 0.0
2014-Sep-14 07:33N 32°07' W 081°08'0 0.0
2014-Sep-14 06:34N 32°07' W 081°08'0 0.0
2014-Sep-14 05:33N 32°07' W 081°08'0 0.0
2014-Sep-14 04:33N 32°07' W 081°08'0 0.0
2014-Sep-14 03:33N 32°07' W 081°08'0 0.0
2014-Sep-14 02:28N 32°07' W 081°08'0 0.0
2014-Sep-14 01:33N 32°07' W 081°08'0 0.0
2014-Sep-13 21:33N 32°07' W 081°08'0 0.0
2014-Sep-13 20:30N 32°07' W 081°08'0 0.0
2014-Sep-13 19:33N 32°07' W 081°08'0 0.0
2014-Sep-13 18:33N 32°07' W 081°08'0 0.0
2014-Sep-13 17:33N 32°07' W 081°08'3 2.9
2014-Sep-13 16:33N 32°05' W 081°06'9 9.1
2014-Sep-13 15:33N 32°03' W 080°56'30618.8
2014-Sep-12 23:17N 27°03' W 079°44'1622.1
2014-Sep-12 22:33N 26°47' W 079°45'2221.8
2014-Sep-12 21:33N 26°25' W 079°48'2221.8
2014-Sep-12 20:33N 26°03' W 079°50'1918.8
2014-Sep-12 19:33N 25°49' W 080°03'3 2.5
2014-Sep-12 18:32N 25°47' W 080°05'0 0.0
2014-Sep-12 17:32N 25°47' W 080°05'0 0.0
2014-Sep-12 16:32N 25°47' W 080°05'0 0.0
2014-Sep-12 15:32N 25°47' W 080°05'0 0.1
2014-Sep-12 14:23N 25°47' W 080°05'0 0.1
2014-Sep-12 13:26N 25°47' W 080°05'0 0.0
2014-Sep-12 12:26N 25°47' W 080°05'0 0.1
2014-Sep-12 11:26N 25°47' W 080°05'6 6.6
2014-Sep-12 10:33N 25°50' W 079°59'1010.0
2014-Sep-12 09:30N 25°41' W 079°54'1919.7
2014-Sep-12 08:33N 25°22' W 079°57'  
Track history (hours):
 
Tides and Currents Weather Stations Pressure Air Temp Water Temp Dewpoint Dewpoint Depression Visibility Wind Speed Wind Dir Waves Ship Positions

Yorktown Express

More information available from US FCC via Universal Licensing System and Coast Guard Vessel Documentation Center.

Last reported at 2014-Sep-22 00:00 UTC. Time now 2014-Sep-22 18:13 UTC.
Position N 41°54' W 029°24'.

Type: Ship. MMSI: 367168650.

Wind from 230 at 10 knots

Waves 2.0 meters (7 feet), 4 second period

Barometer 1031.0 mb
Air temperature 16.0 ° C
Visibility: greater than 10.8 NM
Dewpoint 12.4 ° C
Water temperature 19.0 ° C

Date/timePositionNaut miles runAvg speedWind from/ knotsBaromVisibWave heightAir tempDewpointWater temp
2014-Sep-22 00:00N 41°54' W 029°24'36430.4 230 / 101031.010.8 2.016.012.419.0
2014-Sep-21 12:00N 47°06' W 033°48'18415.3 320 / 151029.510.8 2.015.0 9.219.0
2014-Sep-21 00:00N 45°54' W 037°54'36015.0 320 / 311014.0 3.015.0 9.221.0
2014-Sep-20 00:00N 43°36' W 045°42'11819.7 320 / 251010.010.8 2.020.016.725.0
2014-Sep-19 18:00N 42°42' W 048°06'31417.5 220 / 181008.810.8 1.523.019.921.0
2014-Sep-19 00:00N 40°54' W 054°42'10918.2 120 / 241012.510.8 2.021.014.225.0
2014-Sep-18 18:00N 40°24' W 057°00'32017.8 120 / 121014.510.8 0.522.013.425.0
2014-Sep-18 00:00N 38°48' W 063°36'10617.7 100 / 131014.510.8 0.525.013.129.0
2014-Sep-17 18:00N 38°24' W 065°48'9716.2 090 / 131015.210.8 1.025.015.129.0
2014-Sep-17 12:00N 38°00' W 067°48'12120.2 090 / 231013.010.8 1.026.016.431.0
2014-Sep-17 06:00N 37°36' W 070°18'26118.8 060 / 41014.010.8 0.524.015.831.0
2014-Sep-16 16:07N 36°52' W 075°41'1016.8
2014-Sep-16 15:32N 36°53' W 075°53'1313.0
2014-Sep-16 14:33N 36°59' W 076°07'10 6.9
2014-Sep-16 13:04N 36°55' W 076°20'0 0.0
2014-Sep-16 12:26N 36°55' W 076°20'0 0.0
2014-Sep-16 11:26N 36°55' W 076°20'0 0.0
2014-Sep-16 00:26N 36°55' W 076°20'0 0.0
2014-Sep-15 23:32N 36°55' W 076°20'1 0.5
2014-Sep-15 21:16N 36°57' W 076°20'7 9.3
2014-Sep-15 20:31N 37°00' W 076°13'1413.9
2014-Sep-15 19:30N 36°56' W 075°56'14914.5
2014-Sep-15 09:12N 34°27' W 075°45'29315.6
2014-Sep-14 14:26N 32°02' W 080°49'8 9.6
2014-Sep-14 13:33N 32°05' W 080°59'7 7.2
2014-Sep-14 12:33N 32°06' W 081°07'1 1.1
2014-Sep-14 11:18N 32°07' W 081°08'0 0.0
2014-Sep-14 10:27N 32°07' W 081°08'0 0.0
2014-Sep-14 09:33N 32°07' W 081°08'0 0.0
2014-Sep-14 08:33N 32°07' W 081°08'0 0.0
2014-Sep-14 07:33N 32°07' W 081°08'0 0.0
2014-Sep-14 06:34N 32°07' W 081°08'0 0.0
2014-Sep-14 05:33N 32°07' W 081°08'0 0.0
2014-Sep-14 04:33N 32°07' W 081°08'0 0.0
2014-Sep-14 03:33N 32°07' W 081°08'0 0.0
2014-Sep-14 02:28N 32°07' W 081°08'0 0.0
2014-Sep-14 01:33N 32°07' W 081°08'0 0.0
2014-Sep-13 21:33N 32°07' W 081°08'0 0.0
2014-Sep-13 20:30N 32°07' W 081°08'0 0.0
2014-Sep-13 19:33N 32°07' W 081°08'0 0.0
2014-Sep-13 18:33N 32°07' W 081°08'0 0.0
2014-Sep-13 17:33N 32°07' W 081°08'3 2.9
2014-Sep-13 16:33N 32°05' W 081°06'9 9.1
2014-Sep-13 15:33N 32°03' W 080°56'30618.8
2014-Sep-12 23:17N 27°03' W 079°44'1622.1
2014-Sep-12 22:33N 26°47' W 079°45'2221.8
2014-Sep-12 21:33N 26°25' W 079°48'2221.8
2014-Sep-12 20:33N 26°03' W 079°50'1918.8
2014-Sep-12 19:33N 25°49' W 080°03'3 2.5
2014-Sep-12 18:32N 25°47' W 080°05'0 0.0
2014-Sep-12 17:32N 25°47' W 080°05'0 0.0
2014-Sep-12 16:32N 25°47' W 080°05'0 0.0
2014-Sep-12 15:32N 25°47' W 080°05'0 0.1
2014-Sep-12 14:23N 25°47' W 080°05'0 0.1
2014-Sep-12 13:26N 25°47' W 080°05'0 0.0
2014-Sep-12 12:26N 25°47' W 080°05'0 0.1
2014-Sep-12 11:26N 25°47' W 080°05'6 6.6
2014-Sep-12 10:33N 25°50' W 079°59'1010.0
2014-Sep-12 09:30N 25°41' W 079°54'1919.7
2014-Sep-12 08:33N 25°22' W 079°57'  

Dump ship's entire track history